Time;durP1;ratioP1;P1;durP2;ratioP2;P2;SDS_P1;SDS_P2;PMS_P1;PMS_P2;Temp;Humidity;BMP_temperature;BMP_pressure;BME280_temperature;BME280_humidity;BME280_pressure;Samples;Min_cycle;Max_cycle;Signal;HPM_P1;HPM_P2
2022/04/27 00:00:15;;;;;;;3.72;1.90;;;;;;;12.67;78.73;150836.45;1750019;82;21555;-61
2022/04/27 00:02:42;;;;;;;3.02;2.08;;;;;;;12.64;78.88;150828.66;1750433;82;21204;-62
2022/04/27 00:05:11;;;;;;;3.22;1.77;;;;;;;12.59;78.98;150818.28;1750174;81;20951;-62
2022/04/27 00:07:40;;;;;;;5.47;2.05;;;;;;;12.56;79.38;150810.48;1750095;81;21665;-61
2022/04/27 00:10:08;;;;;;;2.92;1.90;;;;;;;12.53;79.55;150802.69;1750050;82;20998;-61
2022/04/27 00:12:36;;;;;;;3.80;2.33;;;;;;;12.49;79.97;150792.31;1750072;82;21023;-60
2022/04/27 00:15:06;;;;;;;6.33;2.10;;;;;;;12.45;80.20;150781.88;1750167;82;21353;-61
2022/04/27 00:17:33;;;;;;;3.40;2.10;;;;;;;12.42;80.66;150774.08;1750354;81;21001;-61
2022/04/27 00:20:03;;;;;;;2.60;1.80;;;;;;;12.36;80.94;150759.78;1750189;82;21357;-63
2022/04/27 00:22:31;;;;;;;4.53;2.22;;;;;;;12.34;81.05;150753.31;1750113;82;20977;-62
2022/04/27 00:25:01;;;;;;;4.10;2.08;;;;;;;12.30;81.67;150744.20;1750840;81;21412;-62
2022/04/27 00:27:29;;;;;;;2.58;2.20;;;;;;;12.26;81.85;150733.81;1750257;82;21779;-63
2022/04/27 00:29:58;;;;;;;3.22;2.00;;;;;;;12.21;82.04;150722.09;1750262;82;20887;-62
2022/04/27 00:32:27;;;;;;;4.42;2.02;;;;;;;12.17;82.40;150711.72;1749768;82;21017;-62
2022/04/27 00:34:54;;;;;;;3.33;2.10;;;;;;;12.15;82.49;150706.53;1750957;81;21322;-62
2022/04/27 00:37:21;;;;;;;3.50;2.27;;;;;;;12.11;82.67;150696.14;1749932;82;21412;-62
2022/04/27 00:39:49;;;;;;;5.53;2.17;;;;;;;12.09;82.91;150690.95;1750537;82;21419;-62
2022/04/27 00:42:23;;;;;;;2.85;2.20;;;;;;;12.06;83.17;150683.16;1749976;82;21057;-62
2022/04/27 00:44:50;;;;;;;3.85;2.12;;;;;;;12.03;83.18;150677.92;1750466;82;21500;-63
2022/04/27 00:47:18;;;;;;;5.65;2.22;;;;;;;12.03;83.19;150677.92;1749806;82;20986;-62
2022/04/27 00:49:50;;;;;;;3.58;2.37;;;;;;;12.02;83.35;150675.33;1750073;82;21074;-63
2022/04/27 00:52:18;;;;;;;3.20;2.02;;;;;;;11.98;83.33;150664.89;1749845;82;21217;-63
2022/04/27 00:54:52;;;;;;;3.20;2.00;;;;;;;11.97;83.49;150662.30;1750178;82;21487;-63
2022/04/27 00:57:24;;;;;;;4.70;2.10;;;;;;;11.96;83.45;150659.70;1750236;81;21136;-61
2022/04/27 00:59:53;;;;;;;4.28;2.33;;;;;;;11.93;83.60;150651.92;1749594;81;20942;-61
2022/04/27 01:02:22;;;;;;;3.83;2.27;;;;;;;11.91;83.76;150646.73;1749518;82;21001;-61
2022/04/27 01:04:51;;;;;;;3.30;2.00;;;;;;;11.88;84.06;150638.94;1750292;82;21193;-61
2022/04/27 01:07:18;;;;;;;3.58;1.70;;;;;;;11.85;84.11;150631.16;1750097;81;20974;-61
2022/04/27 01:09:46;;;;;;;3.00;2.25;;;;;;;11.83;84.37;150625.97;1750420;82;20966;-61
2022/04/27 01:12:15;;;;;;;3.37;2.10;;;;;;;11.82;84.52;150623.31;1753238;81;20942;-61
2022/04/27 01:14:47;;;;;;;4.55;2.65;;;;;;;11.80;84.69;150618.12;1749612;81;20954;-61
2022/04/27 01:17:15;;;;;;;3.37;2.20;;;;;;;11.79;84.86;150615.53;1750688;81;21179;-62
2022/04/27 01:19:42;;;;;;;2.87;2.02;;;;;;;11.75;85.08;150607.75;1750110;82;21018;-60
2022/04/27 01:22:11;;;;;;;2.90;2.25;;;;;;;11.75;85.07;150607.75;1749612;82;21394;-60
2022/04/27 01:24:44;;;;;;;3.40;2.17;;;;;;;11.75;85.11;150607.75;1749958;82;21012;-61
2022/04/27 01:27:10;;;;;;;4.05;2.20;;;;;;;11.75;85.34;150607.75;1750287;81;21017;-61
2022/04/27 01:29:38;;;;;;;2.83;2.17;;;;;;;11.72;85.31;150599.97;1749756;82;22001;-61
2022/04/27 01:32:07;;;;;;;2.77;1.77;;;;;;;11.71;85.42;150596.05;1749758;81;20943;-61
2022/04/27 01:34:35;;;;;;;2.83;2.35;;;;;;;11.69;85.48;150592.17;1751293;81;21124;-61
2022/04/27 01:39:49;;;;;;;4.15;2.40;;;;;;;11.67;85.44;150585.66;1760941;81;21057;-62
2022/04/27 01:42:17;;;;;;;4.35;2.10;;;;;;;11.66;85.42;150584.39;1760752;81;21730;-61
2022/04/27 01:44:44;;;;;;;3.02;2.20;;;;;;;11.68;85.46;150588.25;1760695;81;20967;-61
2022/04/27 01:47:11;;;;;;;3.52;2.45;;;;;;;11.67;85.45;150586.98;1760686;81;21016;-62
2022/04/27 01:49:38;;;;;;;3.33;2.55;;;;;;;11.67;85.48;150586.98;1760658;81;21088;-61
2022/04/27 01:54:54;;;;;;;5.47;3.15;;;;;;;11.69;85.25;150592.17;1760812;81;21015;-62
2022/04/27 01:57:22;;;;;;;4.85;2.52;;;;;;;11.71;85.19;150596.05;1759940;81;22251;-62
2022/04/27 01:59:50;;;;;;;3.83;2.10;;;;;;;11.72;85.10;150599.97;1760465;81;21010;-63
2022/04/27 02:02:17;;;;;;;2.95;2.02;;;;;;;11.73;85.03;150601.28;1759972;81;22521;-62
2022/04/27 02:04:44;;;;;;;2.90;2.35;;;;;;;11.73;85.01;150601.28;1730530;81;21427;-62
2022/04/27 02:07:14;;;;;;;2.30;2.10;;;;;;;11.71;84.97;150597.38;1760195;81;21339;-62
2022/04/27 02:09:42;;;;;;;3.00;2.33;;;;;;;11.69;84.89;150592.17;1760674;81;21033;-63
2022/04/27 02:12:10;;;;;;;3.70;2.10;;;;;;;11.69;84.88;150592.17;1760382;81;21045;-61
2022/04/27 02:14:38;;;;;;;3.22;2.35;;;;;;;11.68;84.87;150589.58;1760248;81;21053;-61
2022/04/27 02:17:07;;;;;;;3.22;2.15;;;;;;;11.66;84.88;150584.39;1760823;81;21285;-60
2022/04/27 02:19:35;;;;;;;3.12;2.30;;;;;;;11.66;84.83;150584.39;1760512;81;21181;-62
2022/04/27 02:22:03;;;;;;;3.37;2.20;;;;;;;11.67;84.80;150586.98;1760382;81;21006;-61
2022/04/27 02:24:30;;;;;;;3.15;2.10;;;;;;;11.68;84.75;150589.58;1760493;81;21029;-61
2022/04/27 02:26:58;;;;;;;3.05;2.35;;;;;;;11.69;84.71;150592.17;1760455;81;21076;-60
2022/04/27 02:29:28;;;;;;;3.17;2.33;;;;;;;11.70;84.69;150594.78;1760120;81;21334;-61
2022/04/27 02:31:55;;;;;;;4.50;2.45;;;;;;;11.69;84.60;150592.17;1760751;81;21283;-61
2022/04/27 02:34:22;;;;;;;4.72;2.95;;;;;;;11.70;84.51;150593.45;1760166;81;21064;-61
2022/04/27 02:36:49;;;;;;;2.65;2.35;;;;;;;11.69;84.62;150592.17;1750530;81;21053;-60
2022/04/27 02:39:17;;;;;;;3.05;2.50;;;;;;;11.68;84.61;150589.58;1749110;82;21104;-61
2022/04/27 02:41:45;;;;;;;3.75;2.58;;;;;;;11.64;84.83;150579.20;1749821;81;21065;-61
2022/04/27 02:44:12;;;;;;;4.15;2.83;;;;;;;11.60;84.99;150568.78;1749046;81;21724;-62
2022/04/27 02:46:39;;;;;;;3.72;2.30;;;;;;;11.55;85.29;150557.12;1749146;82;21042;-61
2022/04/27 02:51:53;;;;;;;4.35;3.17;;;;;;;11.45;85.74;150532.44;1750154;81;20930;-62
2022/04/27 02:54:35;;;;;;;2.80;2.50;;;;;;;11.42;85.82;150524.66;1712759;81;21253;-61
2022/04/27 02:57:03;;;;;;;2.72;2.27;;;;;;;11.39;86.02;150516.88;1749620;81;21263;-61
2022/04/27 02:59:33;;;;;;;5.08;2.65;;;;;;;11.37;86.05;150511.64;1749676;82;20966;-61
2022/04/27 03:02:02;;;;;;;2.95;2.20;;;;;;;11.38;86.00;150514.23;1749853;81;20998;-61
2022/04/27 03:04:31;;;;;;;3.83;2.90;;;;;;;11.40;86.02;150518.16;1749577;82;21083;-61
2022/04/27 03:06:59;;;;;;;3.52;2.55;;;;;;;11.41;85.98;150522.06;1750219;82;21025;-62
2022/04/27 03:09:26;;;;;;;3.95;2.58;;;;;;;11.40;86.00;150519.47;1749721;81;21446;-62
2022/04/27 03:11:54;;;;;;;3.60;2.70;;;;;;;11.39;86.05;150516.88;1750178;82;21460;-62
2022/04/27 03:14:33;;;;;;;3.58;2.37;;;;;;;11.38;86.15;150512.95;1749681;81;21590;-61
2022/04/27 03:17:01;;;;;;;4.20;2.37;;;;;;;11.37;86.18;150510.36;1750269;81;21408;-61
2022/04/27 03:19:28;;;;;;;6.20;2.98;;;;;;;11.34;86.31;150503.86;1749548;81;21030;-61
2022/04/27 03:21:56;;;;;;;3.87;2.65;;;;;;;11.32;86.36;150498.66;1749914;82;21922;-61
2022/04/27 03:24:25;;;;;;;5.40;2.30;;;;;;;11.30;86.46;150494.80;1749918;81;20985;-61
2022/04/27 03:26:53;;;;;;;3.70;2.58;;;;;;;11.31;86.41;150496.06;1750301;82;21073;-62
2022/04/27 03:29:22;;;;;;;5.72;2.58;;;;;;;11.31;86.42;150496.06;1728941;82;21128;-61
2022/04/27 03:31:53;;;;;;;7.40;2.10;;;;;;;11.30;86.37;150493.47;1749939;81;20966;-62
2022/04/27 03:34:20;;;;;;;5.47;2.67;;;;;;;11.32;86.38;150498.66;1749705;82;21508;-62
2022/04/27 03:36:49;;;;;;;5.47;2.90;;;;;;;11.33;86.33;150501.27;1750298;82;21013;-64
2022/04/27 03:39:18;;;;;;;3.37;2.58;;;;;;;11.35;86.24;150506.44;1749976;81;20943;-61
2022/04/27 03:41:46;;;;;;;3.80;2.65;;;;;;;11.36;86.11;150507.78;1749837;82;21073;-63
2022/04/27 03:44:14;;;;;;;3.75;2.60;;;;;;;11.39;86.08;150516.88;1750164;82;21020;-62
2022/04/27 03:46:41;;;;;;;3.65;2.67;;;;;;;11.40;85.96;150519.47;1749663;82;21206;-62
2022/04/27 03:49:09;;;;;;;3.95;2.40;;;;;;;11.45;85.82;150531.12;1749594;82;21093;-62
2022/04/27 03:51:36;;;;;;;3.45;2.58;;;;;;;11.48;85.69;150537.63;1749416;82;21101;-61
2022/04/27 03:54:05;;;;;;;3.62;2.12;;;;;;;11.50;85.58;150542.81;1728904;82;20986;-63
2022/04/27 03:56:33;;;;;;;5.10;2.25;;;;;;;11.53;85.51;150550.61;1749686;81;21386;-62
2022/04/27 03:59:00;;;;;;;4.08;2.37;;;;;;;11.58;85.36;150563.58;1749913;81;21217;-62
2022/04/27 04:01:28;;;;;;;4.55;2.67;;;;;;;11.61;85.28;150571.41;1749169;82;20966;-62
2022/04/27 04:03:58;;;;;;;6.97;3.20;;;;;;;11.65;85.09;150581.80;1728349;82;21014;-61
2022/04/27 04:06:24;;;;;;;3.77;2.55;;;;;;;11.71;84.92;150597.38;1749749;82;21097;-61
2022/04/27 04:08:52;;;;;;;3.77;2.52;;;;;;;11.82;84.76;150623.31;1750378;82;21039;-62
2022/04/27 04:11:21;;;;;;;5.33;2.80;;;;;;;11.90;84.28;150644.13;1749992;81;20986;-63
2022/04/27 04:13:59;;;;;;;3.17;2.70;;;;;;;12.00;83.96;150670.09;1728385;82;21744;-62
2022/04/27 04:16:30;;;;;;;6.72;3.00;;;;;;;12.09;83.49;150690.95;1748771;81;20977;-62
2022/04/27 04:19:17;;;;;;;6.10;3.15;;;;;;;12.13;83.15;150701.34;1749715;82;21022;-62
2022/04/27 04:22:01;;;;;;;4.78;3.20;;;;;;;12.20;82.69;150718.23;1749599;81;20934;-63
2022/04/27 04:24:33;;;;;;;7.97;3.90;;;;;;;12.30;82.62;150745.52;1748139;81;21522;-62
2022/04/27 04:29:47;;;;;;;4.28;3.37;;;;;;;12.56;81.40;150809.16;1750290;81;21042;-61
2022/04/27 04:32:16;;;;;;;6.28;3.08;;;;;;;12.67;80.62;150836.45;1749944;82;21026;-61
2022/04/27 04:35:02;;;;;;;4.87;2.80;;;;;;;12.77;80.09;150862.47;1750313;82;21145;-62
2022/04/27 04:37:32;;;;;;;3.42;2.70;;;;;;;12.87;79.61;150888.44;1759592;81;21248;-62
2022/04/27 04:40:01;;;;;;;3.92;2.60;;;;;;;12.99;78.92;150917.06;1761227;81;21017;-61
2022/04/27 04:42:29;;;;;;;8.43;3.22;;;;;;;13.09;78.81;150941.77;1761027;81;21447;-62
2022/04/27 04:44:58;;;;;;;5.17;2.62;;;;;;;13.22;78.12;150975.55;1761280;81;20926;-61
2022/04/27 04:47:42;;;;;;;5.60;2.90;;;;;;;13.33;77.31;151004.17;1757542;81;21431;-62
2022/04/27 04:50:29;;;;;;;3.98;2.80;;;;;;;13.43;76.96;151027.59;1695168;84;22072;-61
2022/04/27 04:53:04;;;;;;;3.22;2.60;;;;;;;13.53;76.50;151053.64;1694085;84;20956;-61
2022/04/27 04:55:36;;;;;;;3.33;2.50;;;;;;;13.56;76.24;151061.44;1716708;81;21084;-62
2022/04/27 04:58:06;;;;;;;4.75;2.75;;;;;;;13.61;76.39;151073.14;1759718;81;21690;-62
2022/04/27 05:00:52;;;;;;;3.77;2.62;;;;;;;13.72;76.27;151101.73;1759678;81;20954;-62
2022/04/27 05:03:21;;;;;;;3.55;2.40;;;;;;;13.86;75.95;151135.58;1757551;81;21849;-65
2022/04/27 05:06:07;;;;;;;2.33;2.12;;;;;;;14.03;75.46;151179.77;1760602;81;20978;-61
2022/04/27 05:08:41;;;;;;;2.08;1.87;;;;;;;14.21;74.18;151224.00;1758831;81;21084;-62
2022/04/27 05:11:10;;;;;;;2.50;1.70;;;;;;;14.35;73.86;151259.12;1758550;81;21431;-62
2022/04/27 05:13:43;;;;;;;2.30;1.60;;;;;;;14.50;72.69;151296.91;1722393;81;21049;-62
2022/04/27 05:16:22;;;;;;;3.45;1.40;;;;;;;14.68;72.33;151341.11;1757265;81;21474;-62
2022/04/27 05:18:54;;;;;;;1.40;1.30;;;;;;;14.88;71.29;151391.94;1759279;81;21090;-63
2022/04/27 05:21:35;;;;;;;3.45;1.22;;;;;;;15.01;69.71;151425.75;1755825;81;21424;-62
2022/04/27 05:24:05;;;;;;;1.80;1.30;;;;;;;15.13;69.47;151455.70;1759362;81;20922;-63
2022/04/27 05:26:38;;;;;;;1.32;1.22;;;;;;;15.22;68.49;151477.84;1755600;81;21428;-61
2022/04/27 05:32:27;;;;;;;1.67;1.57;;;;;;;15.30;68.35;151497.38;1760248;81;21036;-63
2022/04/27 05:35:09;;;;;;;3.27;1.70;;;;;;;15.38;68.09;151518.23;1756027;81;20898;-63
2022/04/27 05:37:40;;;;;;;2.37;1.50;;;;;;;15.47;67.01;151540.33;1750858;81;21009;-62
2022/04/27 05:40:18;;;;;;;1.82;1.60;;;;;;;15.52;66.90;151552.06;1748462;81;21080;-62
2022/04/27 05:42:52;;;;;;;2.87;1.80;;;;;;;15.60;66.59;151574.22;1749104;81;21224;-63
2022/04/27 05:45:27;;;;;;;;;;;;;;;15.70;66.79;151597.67;1724297;81;21025;-63
2022/04/27 05:47:56;;;;;;;2.40;1.80;;;;;;;15.87;65.69;151640.64;1748648;81;20157;-62
2022/04/27 05:50:37;;;;;;;2.20;1.55;;;;;;;15.87;65.31;151640.64;1712457;81;20982;-62
2022/04/27 05:53:09;;;;;;;4.60;1.57;;;;;;;15.93;65.06;151656.31;1748621;81;21057;-61
2022/04/27 05:55:43;;;;;;;2.45;1.55;;;;;;;15.93;64.86;151656.31;1750147;82;21054;-62
2022/04/27 05:58:17;;;;;;;2.87;1.37;;;;;;;15.93;64.47;151656.31;1746623;82;21013;-61
2022/04/27 06:00:51;;;;;;;1.87;1.70;;;;;;;15.92;63.98;151653.70;1748670;81;21005;-62
2022/04/27 06:03:34;;;;;;;1.57;1.45;;;;;;;15.87;64.49;151640.64;1748722;81;21073;-62
2022/04/27 06:06:03;;;;;;;1.90;1.60;;;;;;;15.88;64.01;151644.58;1749355;82;21448;-61
2022/04/27 06:08:32;;;;;;;2.92;1.82;;;;;;;15.92;63.98;151652.44;1748758;82;21002;-63
2022/04/27 06:11:02;;;;;;;3.42;1.90;;;;;;;15.95;63.86;151660.25;1749404;81;20982;-62
2022/04/27 06:13:32;;;;;;;2.85;1.75;;;;;;;15.98;63.91;151669.33;1749201;81;21108;-62
2022/04/27 06:16:17;;;;;;;4.62;1.70;;;;;;;16.02;63.35;151679.73;1748933;82;21680;-62
2022/04/27 06:18:54;;;;;;;2.08;1.50;;;;;;;16.04;62.79;151685.00;1739123;80;21005;-62
2022/04/27 06:21:22;;;;;;;2.70;1.37;;;;;;;16.11;62.84;151701.89;1749842;82;21689;-61
2022/04/27 06:23:51;;;;;;;1.72;1.47;;;;;;;16.13;62.57;151705.81;1749931;81;21085;-62
2022/04/27 06:26:18;;;;;;;2.33;1.60;;;;;;;16.14;61.97;151708.42;1749223;81;21085;-63
2022/04/27 06:28:50;;;;;;;4.92;1.50;;;;;;;16.19;62.08;151721.44;1750239;81;21088;-65
2022/04/27 06:31:18;;;;;;;2.15;1.60;;;;;;;16.23;61.73;151731.84;1750239;82;21005;-64
2022/04/27 06:33:47;;;;;;;2.60;1.40;;;;;;;16.30;61.34;151750.12;1750176;82;21480;-63
2022/04/27 06:36:14;;;;;;;1.75;1.32;;;;;;;16.35;60.83;151760.53;1750725;81;21452;-63
2022/04/27 06:38:41;;;;;;;1.40;1.22;;;;;;;16.39;60.30;151770.95;1760377;81;21475;-64
2022/04/27 06:41:10;;;;;;;1.95;1.30;;;;;;;16.39;59.92;151770.95;1760145;81;21065;-64
2022/04/27 06:43:39;;;;;;;2.35;1.40;;;;;;;16.36;59.52;151763.14;1719091;81;21108;-63
2022/04/27 06:46:24;;;;;;;1.30;1.20;;;;;;;16.36;59.76;151763.14;1760311;81;21126;-64
2022/04/27 06:49:05;;;;;;;1.52;1.32;;;;;;;16.42;59.47;151780.09;1716523;81;21387;-63
2022/04/27 06:51:40;;;;;;;1.87;1.50;;;;;;;16.51;59.71;151800.92;1727614;81;21699;-63
2022/04/27 06:54:10;;;;;;;1.82;1.52;;;;;;;16.68;59.28;151843.91;1762483;81;21545;-62
2022/04/27 06:56:42;;;;;;;1.50;1.37;;;;;;;16.81;58.98;151877.81;1762059;81;20917;-63
2022/04/27 06:59:28;;;;;;;2.67;1.57;;;;;;;16.95;58.71;151913.00;1765765;81;22763;-65
2022/04/27 07:01:58;;;;;;;2.95;1.40;;;;;;;17.03;58.54;151932.61;1760910;81;21378;-63
2022/04/27 07:04:27;;;;;;;1.60;1.50;;;;;;;17.13;58.22;151958.70;1760870;80;20969;-64
2022/04/27 07:06:54;;;;;;;2.83;2.00;;;;;;;17.24;57.64;151984.75;1758178;81;21019;-64
2022/04/27 07:09:23;;;;;;;3.95;1.90;;;;;;;17.26;57.75;151989.97;1759419;81;20965;-62
2022/04/27 07:11:52;;;;;;;7.92;2.52;;;;;;;17.27;57.68;151992.56;1760837;81;20997;-64
2022/04/27 07:14:23;;;;;;;2.75;1.95;;;;;;;17.23;57.76;151982.16;1760573;81;21586;-63
2022/04/27 07:16:50;;;;;;;2.00;1.80;;;;;;;17.21;57.81;151976.94;1761174;81;21021;-64
2022/04/27 07:19:20;;;;;;;2.42;1.90;;;;;;;17.16;57.42;151966.52;1759377;81;20943;-64
2022/04/27 07:21:49;;;;;;;4.45;2.00;;;;;;;17.17;58.16;151969.13;1756348;81;21046;-63
2022/04/27 07:24:16;;;;;;;7.65;2.25;;;;;;;17.26;58.74;151989.97;1760654;81;21302;-64
2022/04/27 07:26:45;;;;;;;3.67;2.50;;;;;;;17.33;58.83;152008.20;1760555;81;20922;-63
2022/04/27 07:29:12;;;;;;;3.40;2.50;;;;;;;17.35;58.99;152012.14;1760723;81;21064;-63
2022/04/27 07:31:40;;;;;;;6.45;2.30;;;;;;;17.27;59.51;151992.56;1760116;81;21034;-63
2022/04/27 07:34:07;;;;;;;3.77;2.12;;;;;;;17.27;59.97;151992.56;1760394;80;20994;-63
2022/04/27 07:36:36;;;;;;;2.85;2.37;;;;;;;17.27;59.88;151993.91;1760873;81;21172;-63
2022/04/27 07:39:05;;;;;;;4.72;2.47;;;;;;;17.31;60.20;152003.00;1761138;81;20973;-62
2022/04/27 07:41:33;;;;;;;3.02;2.08;;;;;;;17.37;59.65;152018.67;1760677;81;21041;-63
2022/04/27 07:44:00;;;;;;;4.05;2.30;;;;;;;17.41;59.22;152029.09;1761166;81;20958;-63
2022/04/27 07:46:29;;;;;;;2.58;2.33;;;;;;;17.39;58.83;152023.89;1748805;81;21447;-63
2022/04/27 07:48:57;;;;;;;4.28;2.33;;;;;;;17.31;58.79;152004.31;1753882;80;21406;-63
2022/04/27 07:51:24;;;;;;;5.10;2.12;;;;;;;17.25;58.89;151987.36;1753007;80;20939;-62
2022/04/27 07:53:51;;;;;;;5.15;2.27;;;;;;;17.18;59.30;151971.73;1753463;80;21121;-63
2022/04/27 07:56:18;;;;;;;3.58;2.58;;;;;;;17.21;59.91;151976.94;1752935;80;21045;-62
2022/04/27 07:58:47;;;;;;;2.98;2.50;;;;;;;17.28;60.04;151996.50;1760408;81;21017;-63
2022/04/27 08:01:14;;;;;;;4.25;2.35;;;;;;;17.33;59.87;152008.20;1756672;80;21225;-63
2022/04/27 08:03:43;;;;;;;5.17;2.00;;;;;;;17.40;59.68;152026.48;1756254;81;20934;-64
2022/04/27 08:06:10;;;;;;;3.95;2.17;;;;;;;17.48;59.59;152046.05;1753308;81;21042;-63
2022/04/27 08:08:38;;;;;;;2.75;2.20;;;;;;;17.60;59.21;152076.05;1760036;81;21045;-63
2022/04/27 08:11:14;;;;;;;6.78;2.52;;;;;;;17.71;58.92;152104.70;1760884;80;21369;-62
2022/04/27 08:13:40;;;;;;;3.67;2.00;;;;;;;17.81;58.39;152128.22;1760574;81;21008;-64
2022/04/27 08:16:09;;;;;;;11.53;3.05;;;;;;;17.85;58.08;152138.64;1760953;81;20990;-63
2022/04/27 08:18:36;;;;;;;12.60;2.90;;;;;;;17.84;57.43;152136.03;1760939;81;21127;-63
2022/04/27 08:21:15;;;;;;;9.78;2.90;;;;;;;17.72;57.69;152107.31;1731136;81;20994;-63
2022/04/27 08:23:46;;;;;;;5.15;2.62;;;;;;;17.66;57.94;152091.69;1754344;81;20966;-61
2022/04/27 08:26:14;;;;;;;5.58;2.70;;;;;;;17.62;57.34;152081.25;1756839;81;21301;-63
2022/04/27 08:28:42;;;;;;;6.90;2.92;;;;;;;17.51;57.67;152052.55;1748120;81;21064;-63
2022/04/27 08:31:11;;;;;;;6.92;2.72;;;;;;;17.51;58.49;152052.55;1752616;81;21064;-63
2022/04/27 08:33:39;;;;;;;5.00;2.92;;;;;;;17.61;58.46;152078.66;1730947;81;20930;-62
2022/04/27 08:36:06;;;;;;;3.70;2.30;;;;;;;17.71;58.34;152104.70;1761188;81;20902;-62
2022/04/27 08:38:37;;;;;;;3.20;2.42;;;;;;;17.80;57.69;152125.61;1752358;81;20962;-64
2022/04/27 08:41:04;;;;;;;3.70;2.50;;;;;;;17.87;56.89;152143.84;1750483;82;21396;-63
2022/04/27 08:43:33;;;;;;;5.65;2.22;;;;;;;17.86;56.24;152141.25;1745664;82;21058;-63
2022/04/27 08:46:03;;;;;;;4.70;2.20;;;;;;;17.79;55.59;152122.95;1745635;82;21009;-63
2022/04/27 08:48:31;;;;;;;5.70;2.40;;;;;;;17.75;55.88;152115.13;1748077;82;21049;-64
2022/04/27 08:51:04;;;;;;;4.22;2.67;;;;;;;17.81;55.70;152129.48;1750275;82;20962;-63
2022/04/27 08:53:33;;;;;;;3.37;2.40;;;;;;;17.85;56.06;152139.91;1749954;82;21499;-64
2022/04/27 08:56:01;;;;;;;2.77;2.30;;;;;;;17.96;55.89;152167.31;1750386;82;21054;-63
2022/04/27 08:58:29;;;;;;;2.70;2.20;;;;;;;18.07;55.79;152193.47;1749228;82;21012;-62
2022/04/27 09:00:59;;;;;;;2.65;2.20;;;;;;;18.15;55.12;152215.66;1748480;81;21027;-63
2022/04/27 09:03:37;;;;;;;2.52;2.00;;;;;;;18.17;55.22;152220.86;1745053;82;21185;-61
2022/04/27 09:06:06;;;;;;;4.03;1.80;;;;;;;18.27;54.64;152245.66;1745785;81;20941;-62
2022/04/27 09:08:46;;;;;;;3.25;2.10;;;;;;;18.29;54.62;152250.86;1745538;80;21074;-62
2022/04/27 09:11:33;;;;;;;2.62;2.02;;;;;;;18.36;54.42;152266.50;1745443;81;20971;-62
2022/04/27 09:14:06;;;;;;;4.28;1.62;;;;;;;18.39;54.09;152274.33;1746545;82;20931;-63
2022/04/27 09:22:12;;;;;;;2.20;1.80;;;;;;;18.38;53.00;152271.72;1748486;82;20888;-62
2022/04/27 09:24:53;;;;;;;1.75;1.60;;;;;;;18.33;53.08;152261.28;1744957;80;20939;-63
2022/04/27 09:27:23;;;;;;;7.70;2.22;;;;;;;18.35;52.78;152263.91;1749401;81;21499;-64
2022/04/27 09:30:01;;;;;;;3.05;1.65;;;;;;;18.35;52.65;152265.22;1748009;82;21119;-63
2022/04/27 09:32:30;;;;;;;6.40;1.52;;;;;;;18.33;52.04;152261.28;1745036;81;21465;-64
2022/04/27 09:35:03;;;;;;;1.60;1.50;;;;;;;18.31;51.95;152256.08;1749715;81;21049;-62
2022/04/27 09:37:39;;;;;;;1.50;1.35;;;;;;;18.29;52.31;152250.86;1752106;81;21006;-62
2022/04/27 09:40:11;;;;;;;2.67;1.52;;;;;;;18.33;51.76;152259.97;1735036;81;20923;-64
2022/04/27 09:42:43;;;;;;;4.40;1.67;;;;;;;18.36;51.53;152267.84;1758390;81;21012;-62
2022/04/27 09:45:24;;;;;;;1.70;1.57;;;;;;;18.46;51.38;152292.62;1760810;81;20980;-62
2022/04/27 09:48:00;;;;;;;2.50;1.72;;;;;;;18.49;51.83;152300.44;1732432;81;21013;-64
2022/04/27 09:50:49;;;;;;;3.12;1.67;;;;;;;18.51;50.81;152304.34;1756208;81;21027;-64
2022/04/27 09:53:18;;;;;;;1.50;1.40;;;;;;;18.47;51.08;152295.23;1760753;81;21427;-62
2022/04/27 09:55:50;;;;;;;2.17;1.70;;;;;;;18.44;51.06;152287.36;1760875;81;20957;-63
2022/04/27 09:58:18;;;;;;;5.83;1.65;;;;;;;18.43;50.91;152284.75;1760299;81;20871;-63
2022/04/27 10:00:48;;;;;;;1.30;1.20;;;;;;;18.41;50.60;152279.53;1756429;81;21486;-63
2022/04/27 10:03:18;;;;;;;1.77;1.50;;;;;;;18.39;50.45;152275.66;1753422;81;20971;-64
2022/04/27 10:05:47;;;;;;;2.10;1.80;;;;;;;18.42;50.65;152282.16;1753570;81;21649;-64
2022/04/27 10:08:16;;;;;;;1.87;1.67;;;;;;;18.46;51.83;152293.91;1759543;81;20951;-62
2022/04/27 10:10:47;;;;;;;2.52;1.95;;;;;;;18.49;52.29;152300.44;1638741;86;21040;-64
2022/04/27 10:13:15;;;;;;;2.33;1.90;;;;;;;18.49;52.60;152300.44;1737165;81;20892;-63
2022/04/27 10:15:45;;;;;;;2.77;1.67;;;;;;;18.46;52.83;152292.62;1755065;81;21602;-64
2022/04/27 10:18:18;;;;;;;4.08;1.90;;;;;;;18.39;53.36;152275.66;1756851;81;20974;-63
2022/04/27 10:20:52;;;;;;;3.45;1.70;;;;;;;18.36;53.71;152266.50;1759975;81;21811;-64
2022/04/27 10:23:33;;;;;;;4.08;2.10;;;;;;;18.34;53.71;152262.56;1726873;82;20953;-64
2022/04/27 10:26:20;;;;;;;3.85;1.90;;;;;;;18.34;53.76;152262.56;1748960;81;20988;-64
2022/04/27 10:28:51;;;;;;;;;;;;;;;18.33;53.83;152261.28;1728131;81;21112;-64
2022/04/27 10:31:47;;;;;;;2.35;1.80;;;;;;;18.43;53.80;152286.09;1729758;81;20153;-63
2022/04/27 10:34:23;;;;;;;2.05;1.85;;;;;;;18.55;53.63;152316.09;1764066;81;20947;-63
2022/04/27 10:36:56;;;;;;;2.30;2.10;;;;;;;18.72;52.55;152359.14;1760833;81;20993;-64
2022/04/27 10:39:28;;;;;;;1.55;1.42;;;;;;;18.88;52.33;152399.59;1736622;81;21079;-64
2022/04/27 10:42:06;;;;;;;1.72;1.50;;;;;;;19.04;51.82;152438.81;1732817;82;21497;-64
2022/04/27 10:44:58;;;;;;;1.52;1.40;;;;;;;19.14;51.60;152464.94;1720785;82;21094;-63
2022/04/27 10:47:32;;;;;;;1.85;1.47;;;;;;;19.23;51.30;152485.80;1732430;82;21037;-63
2022/04/27 10:50:20;;;;;;;4.00;1.52;;;;;;;19.29;51.13;152501.45;1707062;83;20957;-62
2022/04/27 10:52:52;;;;;;;4.20;1.80;;;;;;;19.30;50.32;152504.06;1707646;83;21040;-64
2022/04/27 10:55:40;;;;;;;3.08;1.55;;;;;;;19.34;50.34;152514.50;1707605;83;21493;-62
2022/04/27 10:58:30;;;;;;;2.45;1.70;;;;;;;19.36;50.09;152518.44;1707468;83;20886;-63
2022/04/27 11:01:06;;;;;;;2.45;1.75;;;;;;;19.34;49.86;152514.50;1707593;83;21225;-62
2022/04/27 11:03:36;;;;;;;2.35;1.60;;;;;;;19.32;49.98;152510.61;1705780;84;21483;-63
2022/04/27 11:06:06;;;;;;;1.67;1.42;;;;;;;19.28;48.85;152500.17;1707555;84;21416;-62
2022/04/27 11:09:13;;;;;;;1.72;1.62;;;;;;;19.20;49.05;152479.25;1707385;83;20981;-63
2022/04/27 11:11:54;;;;;;;2.22;1.72;;;;;;;19.13;49.30;152461.00;1707698;83;20914;-64
2022/04/27 11:14:29;;;;;;;1.60;1.50;;;;;;;19.01;49.68;152430.98;1705147;84;21550;-63
2022/04/27 11:16:58;;;;;;;1.70;1.40;;;;;;;18.90;50.30;152404.84;1694466;83;21076;-63
2022/04/27 11:19:36;;;;;;;1.50;1.40;;;;;;;18.81;50.62;152381.33;1685144;84;21008;-63
2022/04/27 11:22:12;;;;;;;2.10;1.52;;;;;;;18.73;50.91;152360.47;1688358;84;21057;-63
2022/04/27 11:24:40;;;;;;;1.82;1.42;;;;;;;18.64;51.01;152336.95;1679081;85;21083;-62
2022/04/27 11:27:07;;;;;;;2.67;1.60;;;;;;;18.54;50.98;152313.48;1702346;84;21970;-63
2022/04/27 11:29:36;;;;;;;3.27;1.40;;;;;;;18.51;51.76;152305.66;1694852;83;21156;-63
2022/04/27 11:32:08;;;;;;;3.72;1.25;;;;;;;18.49;51.07;152300.44;1681427;84;21033;-63
2022/04/27 11:34:36;;;;;;;1.40;1.30;;;;;;;18.56;50.72;152317.38;1679599;84;21430;-64
2022/04/27 11:37:16;;;;;;;2.05;1.60;;;;;;;18.68;50.12;152347.38;1679381;84;20929;-63
2022/04/27 11:39:45;;;;;;;3.30;1.40;;;;;;;18.86;49.85;152394.38;1712897;82;21494;-66
2022/04/27 11:42:13;;;;;;;2.12;1.52;;;;;;;19.03;48.74;152436.20;1732801;82;20985;-64
2022/04/27 11:44:51;;;;;;;1.72;1.50;;;;;;;19.15;49.06;152466.22;1734695;82;21454;-66
2022/04/27 11:47:29;;;;;;;5.40;2.10;;;;;;;19.24;49.09;152489.73;1735341;81;21053;-62
2022/04/27 11:50:01;;;;;;;5.20;1.82;;;;;;;19.30;49.16;152504.06;1751032;81;21519;-62
2022/04/27 11:52:30;;;;;;;1.70;1.50;;;;;;;19.35;49.18;152517.16;1753267;81;21185;-59
2022/04/27 11:55:10;;;;;;;2.12;1.55;;;;;;;19.36;48.96;152519.77;1759338;81;21388;-60
2022/04/27 11:57:39;;;;;;;1.95;1.40;;;;;;;19.40;48.83;152528.88;1759826;81;22135;-60
2022/04/27 12:00:09;;;;;;;3.37;1.30;;;;;;;19.40;48.65;152530.20;1760988;81;21005;-59
2022/04/27 12:02:44;;;;;;;1.65;1.20;;;;;;;19.38;48.18;152524.98;1753765;81;21026;-59
2022/04/27 12:05:12;;;;;;;3.33;1.77;;;;;;;19.30;48.68;152504.06;1750258;82;21172;-59